sensor_id;sensor_type;location;lat;lon;timestamp;pressure;altitude;pressure_sealevel;temperature
22286;BMP180;11311;52.192;20.900;2023-07-16T00:02:23;100039.84;;;22.19
22286;BMP180;11311;52.192;20.900;2023-07-16T00:04:52;100031.25;;;22.17
22286;BMP180;11311;52.192;20.900;2023-07-16T00:07:21;100033.28;;;22.12
22286;BMP180;11311;52.192;20.900;2023-07-16T00:09:50;100023.34;;;22.12
22286;BMP180;11311;52.192;20.900;2023-07-16T00:12:21;100031.00;;;22.05
22286;BMP180;11311;52.192;20.900;2023-07-16T00:14:52;100028.28;;;22.05
22286;BMP180;11311;52.192;20.900;2023-07-16T00:17:22;100030.31;;;21.99
22286;BMP180;11311;52.192;20.900;2023-07-16T00:19:51;100021.56;;;21.94
22286;BMP180;11311;52.192;20.900;2023-07-16T00:22:22;100019.34;;;21.96
22286;BMP180;11311;52.192;20.900;2023-07-16T00:24:51;100020.75;;;21.93
22286;BMP180;11311;52.192;20.900;2023-07-16T00:27:21;100022.56;;;21.84
22286;BMP180;11311;52.192;20.900;2023-07-16T00:29:50;100025.56;;;21.83
22286;BMP180;11311;52.192;20.900;2023-07-16T00:32:18;100026.66;;;21.82
22286;BMP180;11311;52.192;20.900;2023-07-16T00:34:47;100026.44;;;21.78
22286;BMP180;11311;52.192;20.900;2023-07-16T00:37:16;100019.41;;;21.69
22286;BMP180;11311;52.192;20.900;2023-07-16T00:39:45;100020.47;;;21.68
22286;BMP180;11311;52.192;20.900;2023-07-16T00:42:13;100024.34;;;21.62
22286;BMP180;11311;52.192;20.900;2023-07-16T00:44:43;100027.47;;;21.69
22286;BMP180;11311;52.192;20.900;2023-07-16T00:47:12;100027.75;;;21.67
22286;BMP180;11311;52.192;20.900;2023-07-16T00:49:43;100031.84;;;21.65
22286;BMP180;11311;52.192;20.900;2023-07-16T00:52:16;100025.97;;;21.63
22286;BMP180;11311;52.192;20.900;2023-07-16T00:54:47;100031.91;;;21.60
22286;BMP180;11311;52.192;20.900;2023-07-16T00:57:16;100023.38;;;21.58
22286;BMP180;11311;52.192;20.900;2023-07-16T00:59:46;100025.56;;;21.56
22286;BMP180;11311;52.192;20.900;2023-07-16T01:02:16;100024.56;;;21.52
22286;BMP180;11311;52.192;20.900;2023-07-16T01:04:45;100014.72;;;21.47
22286;BMP180;11311;52.192;20.900;2023-07-16T01:07:15;100005.25;;;21.50
22286;BMP180;11311;52.192;20.900;2023-07-16T01:09:46;99999.88;;;21.50
22286;BMP180;11311;52.192;20.900;2023-07-16T01:12:15;100001.09;;;21.44
22286;BMP180;11311;52.192;20.900;2023-07-16T01:14:45;100003.06;;;21.38
22286;BMP180;11311;52.192;20.900;2023-07-16T01:17:15;100000.69;;;21.36
22286;BMP180;11311;52.192;20.900;2023-07-16T01:19:43;99995.94;;;21.33
22286;BMP180;11311;52.192;20.900;2023-07-16T01:22:27;99995.69;;;21.30
22286;BMP180;11311;52.192;20.900;2023-07-16T01:25:09;99986.56;;;21.31
22286;BMP180;11311;52.192;20.900;2023-07-16T01:27:59;99985.28;;;21.28
22286;BMP180;11311;52.192;20.900;2023-07-16T01:30:37;99980.50;;;21.25
22286;BMP180;11311;52.192;20.900;2023-07-16T01:33:07;99991.72;;;21.27
22286;BMP180;11311;52.192;20.900;2023-07-16T01:35:38;99983.28;;;21.20
22286;BMP180;11311;52.192;20.900;2023-07-16T01:38:09;99982.47;;;21.20
22286;BMP180;11311;52.192;20.900;2023-07-16T01:40:37;99987.13;;;21.14
22286;BMP180;11311;52.192;20.900;2023-07-16T01:43:07;99976.59;;;21.04
22286;BMP180;11311;52.192;20.900;2023-07-16T01:45:37;99987.94;;;21.01
22286;BMP180;11311;52.192;20.900;2023-07-16T01:48:14;99979.34;;;20.99
22286;BMP180;11311;52.192;20.900;2023-07-16T01:50:46;99978.25;;;21.00
22286;BMP180;11311;52.192;20.900;2023-07-16T01:53:14;99982.13;;;20.94
22286;BMP180;11311;52.192;20.900;2023-07-16T01:55:45;99972.28;;;20.90
22286;BMP180;11311;52.192;20.900;2023-07-16T01:58:13;99970.69;;;20.89
22286;BMP180;11311;52.192;20.900;2023-07-16T02:00:44;99973.06;;;20.90
22286;BMP180;11311;52.192;20.900;2023-07-16T02:03:13;99967.53;;;20.87
22286;BMP180;11311;52.192;20.900;2023-07-16T02:05:42;99965.22;;;20.80
22286;BMP180;11311;52.192;20.900;2023-07-16T02:08:10;99974.13;;;20.76
22286;BMP180;11311;52.192;20.900;2023-07-16T02:10:39;99974.47;;;20.69
22286;BMP180;11311;52.192;20.900;2023-07-16T02:13:10;99974.28;;;20.65
22286;BMP180;11311;52.192;20.900;2023-07-16T02:15:39;99967.13;;;20.61
22286;BMP180;11311;52.192;20.900;2023-07-16T02:18:10;99965.56;;;20.60
22286;BMP180;11311;52.192;20.900;2023-07-16T02:20:39;99966.09;;;20.57
22286;BMP180;11311;52.192;20.900;2023-07-16T02:23:09;99957.78;;;20.58
22286;BMP180;11311;52.192;20.900;2023-07-16T02:25:37;99965.28;;;20.56
22286;BMP180;11311;52.192;20.900;2023-07-16T02:28:06;99969.13;;;20.55
22286;BMP180;11311;52.192;20.900;2023-07-16T02:30:35;99969.91;;;20.56
22286;BMP180;11311;52.192;20.900;2023-07-16T02:33:04;99968.91;;;20.52
22286;BMP180;11311;52.192;20.900;2023-07-16T02:35:34;99960.91;;;20.47
22286;BMP180;11311;52.192;20.900;2023-07-16T02:38:03;99956.63;;;20.46
22286;BMP180;11311;52.192;20.900;2023-07-16T02:40:31;99964.69;;;20.46
22286;BMP180;11311;52.192;20.900;2023-07-16T02:43:00;99959.94;;;20.43
22286;BMP180;11311;52.192;20.900;2023-07-16T02:45:29;99966.38;;;20.42
22286;BMP180;11311;52.192;20.900;2023-07-16T02:47:58;99960.47;;;20.40
22286;BMP180;11311;52.192;20.900;2023-07-16T02:50:27;99966.94;;;20.39
22286;BMP180;11311;52.192;20.900;2023-07-16T02:52:57;99968.03;;;20.38
22286;BMP180;11311;52.192;20.900;2023-07-16T02:55:25;99965.94;;;20.35
22286;BMP180;11311;52.192;20.900;2023-07-16T02:57:54;99962.72;;;20.33
22286;BMP180;11311;52.192;20.900;2023-07-16T03:00:23;99969.19;;;20.32
22286;BMP180;11311;52.192;20.900;2023-07-16T03:02:53;99960.66;;;20.30
22286;BMP180;11311;52.192;20.900;2023-07-16T03:05:22;99960.66;;;20.30
22286;BMP180;11311;52.192;20.900;2023-07-16T03:07:50;99955.28;;;20.30
22286;BMP180;11311;52.192;20.900;2023-07-16T03:10:21;99959.03;;;20.29
22286;BMP180;11311;52.192;20.900;2023-07-16T03:12:50;99949.94;;;20.30
22286;BMP180;11311;52.192;20.900;2023-07-16T03:15:20;99958.47;;;20.32
22286;BMP180;11311;52.192;20.900;2023-07-16T03:17:49;99964.34;;;20.34
22286;BMP180;11311;52.192;20.900;2023-07-16T03:20:18;99970.19;;;20.36
22286;BMP180;11311;52.192;20.900;2023-07-16T03:22:47;99976.09;;;20.38
22286;BMP180;11311;52.192;20.900;2023-07-16T03:25:16;99970.13;;;20.41
22286;BMP180;11311;52.192;20.900;2023-07-16T03:27:47;99971.44;;;20.43
22286;BMP180;11311;52.192;20.900;2023-07-16T03:30:16;99982.38;;;20.47
22286;BMP180;11311;52.192;20.900;2023-07-16T03:32:45;99985.25;;;20.50
22286;BMP180;11311;52.192;20.900;2023-07-16T03:35:24;99979.31;;;20.53
22286;BMP180;11311;52.192;20.900;2023-07-16T03:37:53;99985.41;;;20.59
22286;BMP180;11311;52.192;20.900;2023-07-16T03:40:25;99985.91;;;20.61
22286;BMP180;11311;52.192;20.900;2023-07-16T03:42:56;99978.84;;;20.65
22286;BMP180;11311;52.192;20.900;2023-07-16T03:45:25;99982.06;;;20.67
22286;BMP180;11311;52.192;20.900;2023-07-16T03:47:54;99986.81;;;20.70
22286;BMP180;11311;52.192;20.900;2023-07-16T03:50:23;99987.84;;;20.74
22286;BMP180;11311;52.192;20.900;2023-07-16T03:52:51;99992.09;;;20.75
22286;BMP180;11311;52.192;20.900;2023-07-16T03:55:21;99989.84;;;20.82
22286;BMP180;11311;52.192;20.900;2023-07-16T03:57:50;99995.13;;;20.87
22286;BMP180;11311;52.192;20.900;2023-07-16T04:00:21;100002.50;;;20.95
22286;BMP180;11311;52.192;20.900;2023-07-16T04:02:52;99993.50;;;21.05
22286;BMP180;11311;52.192;20.900;2023-07-16T04:05:21;99998.50;;;21.25
22286;BMP180;11311;52.192;20.900;2023-07-16T04:07:51;99994.28;;;21.19
22286;BMP180;11311;52.192;20.900;2023-07-16T04:10:19;99990.34;;;21.16
22286;BMP180;11311;52.192;20.900;2023-07-16T04:12:48;99998.44;;;21.11
22286;BMP180;11311;52.192;20.900;2023-07-16T04:15:17;100000.06;;;21.12
22286;BMP180;11311;52.192;20.900;2023-07-16T04:17:47;99993.50;;;21.18
22286;BMP180;11311;52.192;20.900;2023-07-16T04:20:16;99983.19;;;21.25
22286;BMP180;11311;52.192;20.900;2023-07-16T04:22:45;99980.91;;;21.32
22286;BMP180;11311;52.192;20.900;2023-07-16T04:25:14;99977.44;;;21.46
22286;BMP180;11311;52.192;20.900;2023-07-16T04:27:43;99986.34;;;21.55
22286;BMP180;11311;52.192;20.900;2023-07-16T04:30:12;99992.13;;;21.62
22286;BMP180;11311;52.192;20.900;2023-07-16T04:32:41;99995.31;;;21.64
22286;BMP180;11311;52.192;20.900;2023-07-16T04:35:11;99990.34;;;21.71
22286;BMP180;11311;52.192;20.900;2023-07-16T04:37:40;99993.31;;;21.83
22286;BMP180;11311;52.192;20.900;2023-07-16T04:40:10;100001.66;;;21.95
22286;BMP180;11311;52.192;20.900;2023-07-16T04:42:41;99997.16;;;21.90
22286;BMP180;11311;52.192;20.900;2023-07-16T04:45:10;100008.59;;;21.96
22286;BMP180;11311;52.192;20.900;2023-07-16T04:47:39;100003.03;;;22.06
22286;BMP180;11311;52.192;20.900;2023-07-16T04:50:08;100002.81;;;22.16
22286;BMP180;11311;52.192;20.900;2023-07-16T04:52:38;100009.53;;;22.27
22286;BMP180;11311;52.192;20.900;2023-07-16T04:55:07;100004.16;;;22.27
22286;BMP180;11311;52.192;20.900;2023-07-16T04:57:36;99998.56;;;22.37
22286;BMP180;11311;52.192;20.900;2023-07-16T05:00:06;99993.28;;;22.54
22286;BMP180;11311;52.192;20.900;2023-07-16T05:02:36;99990.34;;;22.64
22286;BMP180;11311;52.192;20.900;2023-07-16T05:05:06;99994.72;;;22.83
22286;BMP180;11311;52.192;20.900;2023-07-16T05:07:35;100009.06;;;22.92
22286;BMP180;11311;52.192;20.900;2023-07-16T05:10:06;100006.56;;;23.04
22286;BMP180;11311;52.192;20.900;2023-07-16T05:12:35;99999.78;;;23.15
22286;BMP180;11311;52.192;20.900;2023-07-16T05:15:05;100011.25;;;23.20
22286;BMP180;11311;52.192;20.900;2023-07-16T05:17:34;99999.25;;;23.35
22286;BMP180;11311;52.192;20.900;2023-07-16T05:20:04;99989.63;;;23.51
22286;BMP180;11311;52.192;20.900;2023-07-16T05:22:33;99994.09;;;23.64
22286;BMP180;11311;52.192;20.900;2023-07-16T05:25:02;99988.09;;;23.84
22286;BMP180;11311;52.192;20.900;2023-07-16T05:27:33;99985.09;;;23.94
22286;BMP180;11311;52.192;20.900;2023-07-16T05:30:03;99990.38;;;24.08
22286;BMP180;11311;52.192;20.900;2023-07-16T05:32:32;99985.88;;;24.20
22286;BMP180;11311;52.192;20.900;2023-07-16T05:35:01;99977.31;;;24.36
22286;BMP180;11311;52.192;20.900;2023-07-16T05:37:30;99977.94;;;24.50
22286;BMP180;11311;52.192;20.900;2023-07-16T05:39:59;99980.44;;;24.55
22286;BMP180;11311;52.192;20.900;2023-07-16T05:42:28;99976.94;;;24.63
22286;BMP180;11311;52.192;20.900;2023-07-16T05:44:58;99968.16;;;24.74
22286;BMP180;11311;52.192;20.900;2023-07-16T05:47:27;99973.56;;;24.74
22286;BMP180;11311;52.192;20.900;2023-07-16T05:49:56;99975.28;;;24.79
22286;BMP180;11311;52.192;20.900;2023-07-16T05:52:25;99979.19;;;24.98
22286;BMP180;11311;52.192;20.900;2023-07-16T05:54:54;99982.94;;;25.06
22286;BMP180;11311;52.192;20.900;2023-07-16T05:57:23;99990.03;;;25.19
22286;BMP180;11311;52.192;20.900;2023-07-16T05:59:52;99999.56;;;25.25
22286;BMP180;11311;52.192;20.900;2023-07-16T06:02:24;100016.25;;;25.19
22286;BMP180;11311;52.192;20.900;2023-07-16T06:04:52;100009.09;;;25.23
22286;BMP180;11311;52.192;20.900;2023-07-16T06:07:21;100007.47;;;25.30
22286;BMP180;11311;52.192;20.900;2023-07-16T06:09:50;99999.53;;;25.54
22286;BMP180;11311;52.192;20.900;2023-07-16T06:12:19;99999.69;;;25.79
22286;BMP180;11311;52.192;20.900;2023-07-16T06:14:48;99990.25;;;25.85
22286;BMP180;11311;52.192;20.900;2023-07-16T06:17:17;100001.59;;;25.99
22286;BMP180;11311;52.192;20.900;2023-07-16T06:19:47;100001.34;;;25.92
22286;BMP180;11311;52.192;20.900;2023-07-16T06:22:19;99993.00;;;25.97
22286;BMP180;11311;52.192;20.900;2023-07-16T06:24:48;99991.38;;;26.04
22286;BMP180;11311;52.192;20.900;2023-07-16T06:27:17;100005.47;;;26.10
22286;BMP180;11311;52.192;20.900;2023-07-16T06:29:46;100012.56;;;26.02
22286;BMP180;11311;52.192;20.900;2023-07-16T06:32:15;100004.56;;;26.06
22286;BMP180;11311;52.192;20.900;2023-07-16T06:34:43;100014.38;;;26.31
22286;BMP180;11311;52.192;20.900;2023-07-16T06:37:13;100012.84;;;26.54
22286;BMP180;11311;52.192;20.900;2023-07-16T06:39:42;100009.28;;;26.62
22286;BMP180;11311;52.192;20.900;2023-07-16T06:42:11;100012.63;;;26.59
22286;BMP180;11311;52.192;20.900;2023-07-16T06:44:40;100028.00;;;26.67
22286;BMP180;11311;52.192;20.900;2023-07-16T06:47:08;100024.41;;;26.75
22286;BMP180;11311;52.192;20.900;2023-07-16T06:49:37;100027.34;;;26.94
22286;BMP180;11311;52.192;20.900;2023-07-16T06:52:07;100032.53;;;26.87
22286;BMP180;11311;52.192;20.900;2023-07-16T06:54:37;100035.25;;;26.99
22286;BMP180;11311;52.192;20.900;2023-07-16T06:57:08;100032.78;;;27.18
22286;BMP180;11311;52.192;20.900;2023-07-16T06:59:37;100040.78;;;27.51
22286;BMP180;11311;52.192;20.900;2023-07-16T07:02:06;100030.72;;;27.64
22286;BMP180;11311;52.192;20.900;2023-07-16T07:04:35;100040.88;;;27.43
22286;BMP180;11311;52.192;20.900;2023-07-16T07:07:04;100036.03;;;27.48
22286;BMP180;11311;52.192;20.900;2023-07-16T07:09:33;100033.63;;;27.71
22286;BMP180;11311;52.192;20.900;2023-07-16T07:12:04;100027.34;;;27.94
22286;BMP180;11311;52.192;20.900;2023-07-16T07:14:33;100032.69;;;28.18
22286;BMP180;11311;52.192;20.900;2023-07-16T07:17:02;100026.50;;;28.49
22286;BMP180;11311;52.192;20.900;2023-07-16T07:19:31;100042.28;;;28.59
22286;BMP180;11311;52.192;20.900;2023-07-16T07:22:00;100041.16;;;28.60
22286;BMP180;11311;52.192;20.900;2023-07-16T07:24:29;100035.72;;;28.60
22286;BMP180;11311;52.192;20.900;2023-07-16T07:26:58;100036.84;;;28.90
22286;BMP180;11311;52.192;20.900;2023-07-16T07:29:28;100037.09;;;29.17
22286;BMP180;11311;52.192;20.900;2023-07-16T07:31:57;100048.38;;;29.19
22286;BMP180;11311;52.192;20.900;2023-07-16T07:34:27;100026.34;;;29.24
22286;BMP180;11311;52.192;20.900;2023-07-16T07:36:56;100017.72;;;29.02
22286;BMP180;11311;52.192;20.900;2023-07-16T07:39:25;100015.06;;;29.22
22286;BMP180;11311;52.192;20.900;2023-07-16T07:41:54;99998.88;;;29.29
22286;BMP180;11311;52.192;20.900;2023-07-16T07:44:23;100004.88;;;29.19
22286;BMP180;11311;52.192;20.900;2023-07-16T07:46:53;100006.94;;;29.41
22286;BMP180;11311;52.192;20.900;2023-07-16T07:49:22;100003.66;;;29.70
22286;BMP180;11311;52.192;20.900;2023-07-16T07:51:51;100004.50;;;29.74
22286;BMP180;11311;52.192;20.900;2023-07-16T07:54:20;100006.75;;;30.10
22286;BMP180;11311;52.192;20.900;2023-07-16T07:56:49;100004.28;;;30.47
22286;BMP180;11311;52.192;20.900;2023-07-16T07:59:18;100000.22;;;30.37
22286;BMP180;11311;52.192;20.900;2023-07-16T08:01:46;99993.72;;;30.45
22286;BMP180;11311;52.192;20.900;2023-07-16T08:04:16;100000.16;;;30.82
22286;BMP180;11311;52.192;20.900;2023-07-16T08:06:46;99997.34;;;31.02
22286;BMP180;11311;52.192;20.900;2023-07-16T08:09:16;100007.22;;;30.83
22286;BMP180;11311;52.192;20.900;2023-07-16T08:11:45;99988.00;;;31.03
22286;BMP180;11311;52.192;20.900;2023-07-16T08:14:14;99982.97;;;31.34
22286;BMP180;11311;52.192;20.900;2023-07-16T08:16:42;99977.75;;;31.52
22286;BMP180;11311;52.192;20.900;2023-07-16T08:19:11;99978.50;;;31.52
22286;BMP180;11311;52.192;20.900;2023-07-16T08:21:43;99982.25;;;31.74
22286;BMP180;11311;52.192;20.900;2023-07-16T08:24:12;99985.59;;;31.57
22286;BMP180;11311;52.192;20.900;2023-07-16T08:26:40;99966.47;;;31.60
22286;BMP180;11311;52.192;20.900;2023-07-16T08:29:10;99975.63;;;31.75
22286;BMP180;11311;52.192;20.900;2023-07-16T08:31:38;99974.06;;;31.74
22286;BMP180;11311;52.192;20.900;2023-07-16T08:34:07;99978.91;;;31.91
22286;BMP180;11311;52.192;20.900;2023-07-16T08:36:37;99978.13;;;31.90
22286;BMP180;11311;52.192;20.900;2023-07-16T08:39:07;99975.97;;;32.10
22286;BMP180;11311;52.192;20.900;2023-07-16T08:41:37;99968.25;;;32.19
22286;BMP180;11311;52.192;20.900;2023-07-16T08:44:06;99967.47;;;32.22
22286;BMP180;11311;52.192;20.900;2023-07-16T08:46:34;99987.59;;;32.00
22286;BMP180;11311;52.192;20.900;2023-07-16T08:49:05;99964.53;;;31.94
22286;BMP180;11311;52.192;20.900;2023-07-16T08:51:35;99959.69;;;32.24
22286;BMP180;11311;52.192;20.900;2023-07-16T08:54:04;99963.47;;;32.09
22286;BMP180;11311;52.192;20.900;2023-07-16T08:56:35;99967.44;;;32.15
22286;BMP180;11311;52.192;20.900;2023-07-16T08:59:04;99968.16;;;32.59
22286;BMP180;11311;52.192;20.900;2023-07-16T09:01:32;99969.84;;;32.27
22286;BMP180;11311;52.192;20.900;2023-07-16T09:04:02;99969.34;;;32.62
22286;BMP180;11311;52.192;20.900;2023-07-16T09:06:31;99968.28;;;32.80
22286;BMP180;11311;52.192;20.900;2023-07-16T09:08:59;99973.13;;;32.43
22286;BMP180;11311;52.192;20.900;2023-07-16T09:11:28;99964.03;;;32.93
22286;BMP180;11311;52.192;20.900;2023-07-16T09:14:01;99967.06;;;32.71
22286;BMP180;11311;52.192;20.900;2023-07-16T09:16:32;99971.69;;;32.60
22286;BMP180;11311;52.192;20.900;2023-07-16T09:19:06;99956.09;;;32.67
22286;BMP180;11311;52.192;20.900;2023-07-16T09:21:36;99959.22;;;32.62
22286;BMP180;11311;52.192;20.900;2023-07-16T09:24:07;99966.19;;;32.56
22286;BMP180;11311;52.192;20.900;2023-07-16T09:26:36;99950.03;;;33.06
22286;BMP180;11311;52.192;20.900;2023-07-16T09:29:07;99966.44;;;32.99
22286;BMP180;11311;52.192;20.900;2023-07-16T09:31:37;99963.69;;;32.99
22286;BMP180;11311;52.192;20.900;2023-07-16T09:34:09;99948.28;;;32.62
22286;BMP180;11311;52.192;20.900;2023-07-16T09:36:38;99951.56;;;32.96
22286;BMP180;11311;52.192;20.900;2023-07-16T09:39:07;99950.09;;;33.20
22286;BMP180;11311;52.192;20.900;2023-07-16T09:41:38;99936.50;;;33.62
22286;BMP180;11311;52.192;20.900;2023-07-16T09:44:09;99950.22;;;34.11
22286;BMP180;11311;52.192;20.900;2023-07-16T09:46:39;99942.38;;;34.20
22286;BMP180;11311;52.192;20.900;2023-07-16T09:49:08;99942.00;;;34.25
22286;BMP180;11311;52.192;20.900;2023-07-16T09:51:38;99940.03;;;33.87
22286;BMP180;11311;52.192;20.900;2023-07-16T09:54:08;99950.59;;;33.60
22286;BMP180;11311;52.192;20.900;2023-07-16T09:56:44;99934.56;;;33.66
22286;BMP180;11311;52.192;20.900;2023-07-16T09:59:17;99935.72;;;34.35
22286;BMP180;11311;52.192;20.900;2023-07-16T10:01:48;99940.34;;;35.39
22286;BMP180;11311;52.192;20.900;2023-07-16T10:04:19;99949.31;;;34.70
22286;BMP180;11311;52.192;20.900;2023-07-16T10:06:53;99928.28;;;33.79
22286;BMP180;11311;52.192;20.900;2023-07-16T10:09:37;99947.09;;;34.16
22286;BMP180;11311;52.192;20.900;2023-07-16T10:12:13;99967.03;;;33.99
22286;BMP180;11311;52.192;20.900;2023-07-16T10:14:45;99954.53;;;34.09
22286;BMP180;11311;52.192;20.900;2023-07-16T10:17:15;99942.81;;;34.01
22286;BMP180;11311;52.192;20.900;2023-07-16T10:19:57;99933.41;;;33.77
22286;BMP180;11311;52.192;20.900;2023-07-16T10:22:35;99940.84;;;34.05
22286;BMP180;11311;52.192;20.900;2023-07-16T10:25:10;99939.22;;;34.29
22286;BMP180;11311;52.192;20.900;2023-07-16T10:27:39;99935.25;;;34.54
22286;BMP180;11311;52.192;20.900;2023-07-16T10:30:10;99932.91;;;34.53
22286;BMP180;11311;52.192;20.900;2023-07-16T10:32:39;99944.63;;;34.64
22286;BMP180;11311;52.192;20.900;2023-07-16T10:35:09;99934.19;;;34.13
22286;BMP180;11311;52.192;20.900;2023-07-16T10:37:38;99945.50;;;33.73
22286;BMP180;11311;52.192;20.900;2023-07-16T10:40:09;99938.47;;;33.58
22286;BMP180;11311;52.192;20.900;2023-07-16T10:42:40;99934.16;;;33.99
22286;BMP180;11311;52.192;20.900;2023-07-16T10:45:11;99941.53;;;34.58
22286;BMP180;11311;52.192;20.900;2023-07-16T10:47:52;99942.84;;;35.19
22286;BMP180;11311;52.192;20.900;2023-07-16T10:50:22;99951.16;;;35.01
22286;BMP180;11311;52.192;20.900;2023-07-16T10:52:51;99941.09;;;34.74
22286;BMP180;11311;52.192;20.900;2023-07-16T10:55:22;99963.16;;;35.25
22286;BMP180;11311;52.192;20.900;2023-07-16T10:57:51;99957.97;;;34.62
22286;BMP180;11311;52.192;20.900;2023-07-16T11:00:24;99955.53;;;34.81
22286;BMP180;11311;52.192;20.900;2023-07-16T11:02:53;99953.13;;;35.63
22286;BMP180;11311;52.192;20.900;2023-07-16T11:05:22;99954.16;;;36.87
22286;BMP180;11311;52.192;20.900;2023-07-16T11:07:50;99955.44;;;38.64
22286;BMP180;11311;52.192;20.900;2023-07-16T11:10:23;99953.81;;;38.08
22286;BMP180;11311;52.192;20.900;2023-07-16T11:12:52;99949.78;;;37.46
22286;BMP180;11311;52.192;20.900;2023-07-16T11:15:31;99957.38;;;38.47
22286;BMP180;11311;52.192;20.900;2023-07-16T11:18:01;99951.19;;;38.95
22286;BMP180;11311;52.192;20.900;2023-07-16T11:20:30;99957.38;;;37.62
22286;BMP180;11311;52.192;20.900;2023-07-16T11:22:59;99950.81;;;37.29
22286;BMP180;11311;52.192;20.900;2023-07-16T11:25:29;99952.72;;;35.64
22286;BMP180;11311;52.192;20.900;2023-07-16T11:27:58;99958.72;;;36.00
22286;BMP180;11311;52.192;20.900;2023-07-16T11:30:27;99961.50;;;37.50
22286;BMP180;11311;52.192;20.900;2023-07-16T11:32:58;99953.25;;;37.74
22286;BMP180;11311;52.192;20.900;2023-07-16T11:35:27;99959.09;;;36.39
22286;BMP180;11311;52.192;20.900;2023-07-16T11:37:56;99960.19;;;35.64
22286;BMP180;11311;52.192;20.900;2023-07-16T11:40:27;99967.56;;;35.74
22286;BMP180;11311;52.192;20.900;2023-07-16T11:42:56;99966.75;;;35.77
22286;BMP180;11311;52.192;20.900;2023-07-16T11:45:25;99969.34;;;36.35
22286;BMP180;11311;52.192;20.900;2023-07-16T11:47:54;99969.41;;;35.33
22286;BMP180;11311;52.192;20.900;2023-07-16T11:50:25;99967.09;;;35.24
22286;BMP180;11311;52.192;20.900;2023-07-16T11:52:54;99967.56;;;35.16
22286;BMP180;11311;52.192;20.900;2023-07-16T11:55:23;99982.75;;;35.31
22286;BMP180;11311;52.192;20.900;2023-07-16T11:57:52;99963.13;;;34.35
22286;BMP180;11311;52.192;20.900;2023-07-16T12:00:21;99983.84;;;34.36
22286;BMP180;11311;52.192;20.900;2023-07-16T12:02:50;99993.34;;;35.87
22286;BMP180;11311;52.192;20.900;2023-07-16T12:05:19;99988.66;;;37.25
22286;BMP180;11311;52.192;20.900;2023-07-16T12:07:58;99979.38;;;37.12
22286;BMP180;11311;52.192;20.900;2023-07-16T12:10:27;99978.94;;;37.67
22286;BMP180;11311;52.192;20.900;2023-07-16T12:12:56;99977.44;;;38.09
22286;BMP180;11311;52.192;20.900;2023-07-16T12:15:25;99975.81;;;39.05
22286;BMP180;11311;52.192;20.900;2023-07-16T12:17:54;99980.19;;;39.83
22286;BMP180;11311;52.192;20.900;2023-07-16T12:20:23;99970.91;;;38.42
22286;BMP180;11311;52.192;20.900;2023-07-16T12:22:51;99970.75;;;37.63
22286;BMP180;11311;52.192;20.900;2023-07-16T12:25:21;99979.47;;;38.05
22286;BMP180;11311;52.192;20.900;2023-07-16T12:27:50;99968.41;;;38.28
22286;BMP180;11311;52.192;20.900;2023-07-16T12:30:22;99967.94;;;38.88
22286;BMP180;11311;52.192;20.900;2023-07-16T12:32:51;99974.72;;;39.51
22286;BMP180;11311;52.192;20.900;2023-07-16T12:35:20;99987.31;;;39.36
22286;BMP180;11311;52.192;20.900;2023-07-16T12:37:49;99983.72;;;39.39
22286;BMP180;11311;52.192;20.900;2023-07-16T12:40:18;99979.22;;;39.29
22286;BMP180;11311;52.192;20.900;2023-07-16T12:42:48;99975.75;;;39.41
22286;BMP180;11311;52.192;20.900;2023-07-16T12:45:17;99981.47;;;38.63
22286;BMP180;11311;52.192;20.900;2023-07-16T12:47:46;99983.56;;;37.97
22286;BMP180;11311;52.192;20.900;2023-07-16T12:50:16;99971.94;;;37.86
22286;BMP180;11311;52.192;20.900;2023-07-16T12:52:44;99980.31;;;36.72
22286;BMP180;11311;52.192;20.900;2023-07-16T12:55:13;99974.38;;;36.77
22286;BMP180;11311;52.192;20.900;2023-07-16T12:57:42;99975.09;;;38.27
22286;BMP180;11311;52.192;20.900;2023-07-16T13:00:12;99979.19;;;39.13
22286;BMP180;11311;52.192;20.900;2023-07-16T13:02:41;99987.81;;;38.99
22286;BMP180;11311;52.192;20.900;2023-07-16T13:05:10;99985.47;;;40.22
22286;BMP180;11311;52.192;20.900;2023-07-16T13:07:39;99966.69;;;41.18
22286;BMP180;11311;52.192;20.900;2023-07-16T13:10:09;99977.13;;;40.89
22286;BMP180;11311;52.192;20.900;2023-07-16T13:12:50;99987.91;;;39.60
22286;BMP180;11311;52.192;20.900;2023-07-16T13:15:21;99992.94;;;38.81
22286;BMP180;11311;52.192;20.900;2023-07-16T13:17:49;100004.22;;;39.86
22286;BMP180;11311;52.192;20.900;2023-07-16T13:20:18;99996.66;;;38.55
22286;BMP180;11311;52.192;20.900;2023-07-16T13:22:47;99995.56;;;38.29
22286;BMP180;11311;52.192;20.900;2023-07-16T13:25:16;99997.03;;;38.34
22286;BMP180;11311;52.192;20.900;2023-07-16T13:27:45;100003.91;;;39.52
22286;BMP180;11311;52.192;20.900;2023-07-16T13:30:16;99991.81;;;39.14
22286;BMP180;11311;52.192;20.900;2023-07-16T13:32:47;99995.91;;;38.12
22286;BMP180;11311;52.192;20.900;2023-07-16T13:35:16;99997.13;;;37.88
22286;BMP180;11311;52.192;20.900;2023-07-16T13:37:45;99992.44;;;36.78
22286;BMP180;11311;52.192;20.900;2023-07-16T13:40:15;99991.09;;;37.20
22286;BMP180;11311;52.192;20.900;2023-07-16T13:42:48;99999.28;;;36.26
22286;BMP180;11311;52.192;20.900;2023-07-16T13:45:17;99987.16;;;36.61
22286;BMP180;11311;52.192;20.900;2023-07-16T13:47:48;99987.09;;;37.24
22286;BMP180;11311;52.192;20.900;2023-07-16T13:50:19;99982.09;;;36.18
22286;BMP180;11311;52.192;20.900;2023-07-16T13:52:48;99988.63;;;35.91
22286;BMP180;11311;52.192;20.900;2023-07-16T13:55:17;100005.31;;;35.63
22286;BMP180;11311;52.192;20.900;2023-07-16T13:57:46;99992.97;;;35.27
22286;BMP180;11311;52.192;20.900;2023-07-16T14:00:15;99996.47;;;35.31
22286;BMP180;11311;52.192;20.900;2023-07-16T14:02:44;100004.94;;;36.12
22286;BMP180;11311;52.192;20.900;2023-07-16T14:05:17;99991.22;;;35.54
22286;BMP180;11311;52.192;20.900;2023-07-16T14:07:47;100010.81;;;35.59
22286;BMP180;11311;52.192;20.900;2023-07-16T14:10:17;100005.56;;;35.21